Time;durP1;ratioP1;P1;durP2;ratioP2;P2;SDS_P1;SDS_P2;PMS_P1;PMS_P2;Temp;Humidity;BMP_temperature;BMP_pressure;BME280_temperature;BME280_humidity;BME280_pressure;Samples;Min_cycle;Max_cycle;Signal;HPM_P1;HPM_P2
2023/05/07 00:01:28;;;;;;;10.13;9.52;;;;;;;;;;4978950;28;20113;-50
2023/05/07 00:03:53;;;;;;;9.90;9.27;;;;;;;;;;4996477;28;20034;-51
2023/05/07 00:06:19;;;;;;;10.07;9.38;;;;;;;;;;4996839;28;20122;-51
2023/05/07 00:08:44;;;;;;;9.85;9.25;;;;;;;;;;4998274;28;20034;-47
2023/05/07 00:11:10;;;;;;;10.95;10.25;;;;;;;;;;5000316;28;20077;-47
2023/05/07 00:13:35;;;;;;;9.68;9.07;;;;;;;;;;5000806;28;20061;-49
2023/05/07 00:16:02;;;;;;;10.77;10.07;;;;;;;;;;4999853;28;20066;-49
2023/05/07 00:18:27;;;;;;;10.20;9.50;;;;;;;;;;4998513;28;20030;-53
2023/05/07 00:20:53;;;;;;;9.73;9.13;;;;;;;;;;4997150;28;20108;-50
2023/05/07 00:23:18;;;;;;;9.93;9.32;;;;;;;;;;5001861;28;20034;-51
2023/05/07 00:25:43;;;;;;;10.07;9.40;;;;;;;;;;5001136;28;20030;-52
2023/05/07 00:28:09;;;;;;;10.10;9.43;;;;;;;;;;4998018;28;20040;-52
2023/05/07 00:30:34;;;;;;;10.00;9.40;;;;;;;;;;4999206;28;20117;-51
2023/05/07 00:32:59;;;;;;;9.68;9.07;;;;;;;;;;5000588;28;20129;-52
2023/05/07 00:35:25;;;;;;;9.63;9.02;;;;;;;;;;4999886;28;20030;-53
2023/05/07 00:37:50;;;;;;;9.98;9.38;;;;;;;;;;4987427;28;20468;-49
2023/05/07 00:40:16;;;;;;;9.85;9.05;;;;;;;;;;4999506;28;20034;-52
2023/05/07 00:42:41;;;;;;;10.00;9.40;;;;;;;;;;4986516;28;20100;-51
2023/05/07 00:45:07;;;;;;;9.82;9.23;;;;;;;;;;5000287;28;20037;-52
2023/05/07 00:47:33;;;;;;;10.00;9.40;;;;;;;;;;4997814;28;20048;-53
2023/05/07 00:49:58;;;;;;;9.63;9.02;;;;;;;;;;5000902;28;20038;-53
2023/05/07 00:52:25;;;;;;;10.05;9.45;;;;;;;;;;4998630;28;20038;-52
2023/05/07 00:54:51;;;;;;;10.60;9.90;;;;;;;;;;5001007;28;20498;-52
2023/05/07 00:57:17;;;;;;;11.07;10.38;;;;;;;;;;4988035;28;20053;-51
2023/05/07 00:59:42;;;;;;;10.18;9.57;;;;;;;;;;4999137;28;20057;-48
2023/05/07 01:02:08;;;;;;;10.40;9.77;;;;;;;;;;5004184;28;20367;-49
2023/05/07 01:04:33;;;;;;;9.88;9.27;;;;;;;;;;4984619;28;20121;-51
2023/05/07 01:07:00;;;;;;;11.18;10.48;;;;;;;;;;5001916;28;20044;-49
2023/05/07 01:09:26;;;;;;;9.60;9.00;;;;;;;;;;4997255;28;20034;-48
2023/05/07 01:11:52;;;;;;;10.68;10.07;;;;;;;;;;4997554;28;20038;-53
2023/05/07 01:14:18;;;;;;;10.07;9.48;;;;;;;;;;4995816;28;20050;-50
2023/05/07 01:16:44;;;;;;;11.23;10.52;;;;;;;;;;4994599;28;20061;-52
2023/05/07 01:19:11;;;;;;;10.68;9.98;;;;;;;;;;4994202;28;20517;-52
2023/05/07 01:21:37;;;;;;;9.73;9.13;;;;;;;;;;4995672;28;20054;-52
2023/05/07 01:24:04;;;;;;;10.52;9.82;;;;;;;;;;5000144;28;20132;-51
2023/05/07 01:26:30;;;;;;;10.43;9.73;;;;;;;;;;4995693;28;20100;-53
2023/05/07 01:28:55;;;;;;;9.93;9.32;;;;;;;;;;4997295;28;20049;-53
2023/05/07 01:31:23;;;;;;;10.40;9.70;;;;;;;;;;4997264;28;20056;-51
2023/05/07 01:33:50;;;;;;;9.77;9.18;;;;;;;;;;4999138;28;20030;-52
2023/05/07 01:36:17;;;;;;;9.90;9.30;;;;;;;;;;4996718;28;20364;-49
2023/05/07 01:38:43;;;;;;;10.57;9.88;;;;;;;;;;4996720;28;20414;-51
2023/05/07 01:41:08;;;;;;;10.07;9.48;;;;;;;;;;4987166;28;20042;-51
2023/05/07 01:43:33;;;;;;;10.60;9.98;;;;;;;;;;4985369;28;20368;-52
2023/05/07 01:46:00;;;;;;;11.35;10.65;;;;;;;;;;4994925;28;20404;-54
2023/05/07 01:48:26;;;;;;;9.65;9.05;;;;;;;;;;4997649;28;20034;-52
2023/05/07 01:50:52;;;;;;;10.18;9.57;;;;;;;;;;4998063;28;20041;-52
2023/05/07 01:53:17;;;;;;;10.43;9.80;;;;;;;;;;4978864;28;20034;-51
2023/05/07 01:55:42;;;;;;;9.82;9.23;;;;;;;;;;4984776;28;20034;-52
2023/05/07 01:58:08;;;;;;;9.45;8.85;;;;;;;;;;5000795;28;20030;-52
2023/05/07 02:00:33;;;;;;;9.98;9.27;;;;;;;;;;4998171;28;20207;-50
2023/05/07 02:02:59;;;;;;;9.77;9.18;;;;;;;;;;4997247;28;20048;-54
2023/05/07 02:05:24;;;;;;;9.77;9.18;;;;;;;;;;4982210;28;20038;-52
2023/05/07 02:07:50;;;;;;;10.30;9.65;;;;;;;;;;4998195;28;20120;-51
2023/05/07 02:10:15;;;;;;;10.57;9.98;;;;;;;;;;4997788;28;20038;-49
2023/05/07 02:12:40;;;;;;;10.27;9.68;;;;;;;;;;4996781;28;20033;-48
2023/05/07 02:15:06;;;;;;;10.88;10.18;;;;;;;;;;4999564;28;20053;-51
2023/05/07 02:17:32;;;;;;;11.00;10.30;;;;;;;;;;4996316;28;20093;-50
2023/05/07 02:19:58;;;;;;;10.52;9.88;;;;;;;;;;4998600;28;20041;-49
2023/05/07 02:22:24;;;;;;;11.48;10.77;;;;;;;;;;4980864;28;20038;-52
2023/05/07 02:24:49;;;;;;;10.65;10.05;;;;;;;;;;4998434;28;20041;-52
2023/05/07 02:27:15;;;;;;;11.13;10.43;;;;;;;;;;4984143;28;20038;-50
2023/05/07 02:29:40;;;;;;;10.30;9.70;;;;;;;;;;4995114;28;20068;-51
2023/05/07 02:32:05;;;;;;;10.60;9.95;;;;;;;;;;5000699;28;20049;-51
2023/05/07 02:34:31;;;;;;;10.30;9.60;;;;;;;;;;4995925;28;20041;-53
2023/05/07 02:36:56;;;;;;;10.88;10.18;;;;;;;;;;4997081;28;20034;-53
2023/05/07 02:39:21;;;;;;;12.13;11.43;;;;;;;;;;4993730;28;20520;-51
2023/05/07 02:41:47;;;;;;;12.85;12.13;;;;;;;;;;5001937;28;20041;-50
2023/05/07 02:44:12;;;;;;;12.00;11.30;;;;;;;;;;4998289;28;20052;-51
2023/05/07 02:46:37;;;;;;;12.50;11.57;;;;;;;;;;4995733;28;20080;-51
2023/05/07 02:49:03;;;;;;;12.32;11.48;;;;;;;;;;4996226;28;20070;-54
2023/05/07 02:51:30;;;;;;;13.57;12.77;;;;;;;;;;4993453;28;20116;-51
2023/05/07 02:53:55;;;;;;;13.55;12.75;;;;;;;;;;4994705;28;20515;-52
2023/05/07 02:56:21;;;;;;;12.60;11.90;;;;;;;;;;4996419;28;20116;-52
2023/05/07 02:58:46;;;;;;;13.75;12.95;;;;;;;;;;4999358;28;20109;-50
2023/05/07 03:01:13;;;;;;;13.35;12.55;;;;;;;;;;4997652;28;20046;-52
2023/05/07 03:03:39;;;;;;;13.75;12.95;;;;;;;;;;4993755;28;20041;-51
2023/05/07 03:06:06;;;;;;;12.85;12.05;;;;;;;;;;4996702;28;20029;-51
2023/05/07 03:08:32;;;;;;;15.45;14.55;;;;;;;;;;4980530;28;20443;-52
2023/05/07 03:10:57;;;;;;;14.40;13.60;;;;;;;;;;4995310;28;20038;-52
2023/05/07 03:13:23;;;;;;;14.63;13.82;;;;;;;;;;4998149;28;20084;-52
2023/05/07 03:15:48;;;;;;;13.82;13.02;;;;;;;;;;4997702;28;20033;-49
2023/05/07 03:18:13;;;;;;;15.60;14.70;;;;;;;;;;4996693;28;20061;-50
2023/05/07 03:20:39;;;;;;;16.23;15.32;;;;;;;;;;4995846;28;20034;-54
2023/05/07 03:23:05;;;;;;;15.65;14.75;;;;;;;;;;4998537;28;20117;-51
2023/05/07 03:25:31;;;;;;;16.23;15.32;;;;;;;;;;4996923;28;20601;-53
2023/05/07 03:27:56;;;;;;;16.73;15.82;;;;;;;;;;4991669;28;20092;-53
2023/05/07 03:30:22;;;;;;;15.68;14.77;;;;;;;;;;4996180;28;20089;-51
2023/05/07 03:32:47;;;;;;;15.32;14.43;;;;;;;;;;4999730;28;20123;-51
2023/05/07 03:35:12;;;;;;;15.40;14.50;;;;;;;;;;4999439;28;20030;-50
2023/05/07 03:37:38;;;;;;;14.73;13.82;;;;;;;;;;4993889;28;20504;-50
2023/05/07 03:40:05;;;;;;;14.82;13.93;;;;;;;;;;5000453;28;20084;-49
2023/05/07 03:42:30;;;;;;;13.85;13.05;;;;;;;;;;4988434;28;20037;-54
2023/05/07 03:44:55;;;;;;;15.07;14.20;;;;;;;;;;4997614;28;20034;-52
2023/05/07 03:47:21;;;;;;;14.38;13.55;;;;;;;;;;4997543;28;20057;-52
2023/05/07 03:49:46;;;;;;;14.80;14.00;;;;;;;;;;4998703;28;20033;-49
2023/05/07 03:52:11;;;;;;;16.02;15.13;;;;;;;;;;4998839;28;20559;-53
2023/05/07 03:54:37;;;;;;;15.82;14.93;;;;;;;;;;4985375;28;20433;-53
2023/05/07 03:57:02;;;;;;;16.73;15.82;;;;;;;;;;4999200;28;20046;-51
2023/05/07 03:59:27;;;;;;;16.80;15.90;;;;;;;;;;5002299;28;20025;-53
2023/05/07 04:01:53;;;;;;;17.70;16.70;;;;;;;;;;5000578;28;20034;-52
2023/05/07 04:04:18;;;;;;;18.67;17.65;;;;;;;;;;5000819;28;20034;-49
2023/05/07 04:06:44;;;;;;;18.25;17.25;;;;;;;;;;5002851;28;20137;-52
2023/05/07 04:09:09;;;;;;;18.77;17.73;;;;;;;;;;5000459;28;20522;-49
2023/05/07 04:11:35;;;;;;;17.73;16.70;;;;;;;;;;5001370;28;20065;-49
2023/05/07 04:14:01;;;;;;;17.58;16.58;;;;;;;;;;4995148;28;20672;-50
2023/05/07 04:16:26;;;;;;;18.30;17.25;;;;;;;;;;4999382;28;20065;-50
2023/05/07 04:18:52;;;;;;;17.40;16.42;;;;;;;;;;4999935;28;20033;-50
2023/05/07 04:21:18;;;;;;;19.50;18.40;;;;;;;;;;4999027;28;20622;-52
2023/05/07 04:23:44;;;;;;;19.80;18.70;;;;;;;;;;4999283;28;20034;-53
2023/05/07 04:26:09;;;;;;;17.80;16.80;;;;;;;;;;4998884;28;20649;-54
2023/05/07 04:28:35;;;;;;;16.95;16.05;;;;;;;;;;4998475;28;20061;-53
2023/05/07 04:31:00;;;;;;;17.52;16.52;;;;;;;;;;4997381;28;20614;-51
2023/05/07 04:33:26;;;;;;;16.15;15.15;;;;;;;;;;5001313;28;20036;-48
2023/05/07 04:35:51;;;;;;;18.73;17.73;;;;;;;;;;5000178;28;20077;-51
2023/05/07 04:38:18;;;;;;;17.27;16.27;;;;;;;;;;4995891;28;20034;-50
2023/05/07 04:40:43;;;;;;;16.38;15.48;;;;;;;;;;4997501;28;20085;-51
2023/05/07 04:43:09;;;;;;;18.48;17.05;;;;;;;;;;4999929;28;20088;-51
2023/05/07 04:45:35;;;;;;;19.00;17.30;;;;;;;;;;4996299;28;20034;-53
2023/05/07 04:48:01;;;;;;;16.10;15.20;;;;;;;;;;4997124;28;20037;-50
2023/05/07 04:50:26;;;;;;;16.65;15.70;;;;;;;;;;4995987;28;20084;-49
2023/05/07 04:52:51;;;;;;;16.17;15.27;;;;;;;;;;4995859;28;20034;-52
2023/05/07 04:55:17;;;;;;;16.85;15.95;;;;;;;;;;5000610;28;20045;-55
2023/05/07 04:57:42;;;;;;;17.92;16.92;;;;;;;;;;4997388;28;20068;-52
2023/05/07 05:00:08;;;;;;;18.67;17.67;;;;;;;;;;4997429;28;20029;-52
2023/05/07 05:02:34;;;;;;;16.08;15.18;;;;;;;;;;4996158;28;20563;-53
2023/05/07 05:05:02;;;;;;;16.15;15.25;;;;;;;;;;4999831;28;20042;-52
2023/05/07 05:07:28;;;;;;;14.88;14.02;;;;;;;;;;4997891;28;20044;-50
2023/05/07 05:09:53;;;;;;;15.00;14.13;;;;;;;;;;4999377;28;20045;-54
2023/05/07 05:12:19;;;;;;;17.50;15.88;;;;;;;;;;4997924;28;20379;-53
2023/05/07 05:14:44;;;;;;;13.27;12.48;;;;;;;;;;4997646;28;20640;-51
2023/05/07 05:17:10;;;;;;;14.50;13.60;;;;;;;;;;4999851;28;20034;-49
2023/05/07 05:19:35;;;;;;;14.95;13.98;;;;;;;;;;4995574;28;20030;-50
2023/05/07 05:22:01;;;;;;;13.45;12.65;;;;;;;;;;4981033;28;20949;-48
2023/05/07 05:24:26;;;;;;;13.02;12.23;;;;;;;;;;4990997;28;20034;-51
2023/05/07 05:26:54;;;;;;;11.30;10.60;;;;;;;;;;4998339;28;20030;-50
2023/05/07 05:29:19;;;;;;;11.50;10.80;;;;;;;;;;4999388;28;20045;-51
2023/05/07 05:31:45;;;;;;;12.27;11.57;;;;;;;;;;4992703;28;20034;-51
2023/05/07 05:34:10;;;;;;;11.52;10.73;;;;;;;;;;4988646;28;20032;-52
2023/05/07 05:36:36;;;;;;;11.30;10.60;;;;;;;;;;4998459;28;20042;-51
2023/05/07 05:39:01;;;;;;;10.27;9.68;;;;;;;;;;4995650;28;20037;-49
2023/05/07 05:41:26;;;;;;;10.35;9.65;;;;;;;;;;5000915;28;20400;-51
2023/05/07 05:43:52;;;;;;;10.25;9.65;;;;;;;;;;4995637;28;20079;-52
2023/05/07 05:46:17;;;;;;;10.38;9.77;;;;;;;;;;4996242;28;20724;-50
2023/05/07 05:48:42;;;;;;;10.43;9.77;;;;;;;;;;4993970;28;20062;-50
2023/05/07 05:51:08;;;;;;;9.90;9.10;;;;;;;;;;4996845;28;20048;-51
2023/05/07 05:53:33;;;;;;;11.07;10.25;;;;;;;;;;4997000;28;20029;-50
2023/05/07 05:55:59;;;;;;;9.70;9.10;;;;;;;;;;4998333;28;20112;-49
2023/05/07 05:58:24;;;;;;;10.00;9.40;;;;;;;;;;4998166;28;20441;-49
2023/05/07 06:00:52;;;;;;;9.63;9.02;;;;;;;;;;4997203;28;20030;-49
2023/05/07 06:03:17;;;;;;;10.88;10.20;;;;;;;;;;4996171;28;20567;-49
2023/05/07 06:05:43;;;;;;;10.82;10.13;;;;;;;;;;4995790;28;20041;-49
2023/05/07 06:08:08;;;;;;;10.02;9.43;;;;;;;;;;4996038;28;20025;-47
2023/05/07 06:10:36;;;;;;;11.23;10.52;;;;;;;;;;4997234;28;20043;-51
2023/05/07 06:13:01;;;;;;;13.00;11.90;;;;;;;;;;4993587;28;20045;-51
2023/05/07 06:15:26;;;;;;;12.57;11.88;;;;;;;;;;4997410;28;20487;-53
2023/05/07 06:17:52;;;;;;;12.70;12.00;;;;;;;;;;4998843;28;20419;-48
2023/05/07 06:20:17;;;;;;;14.48;13.68;;;;;;;;;;4990105;28;20026;-52
2023/05/07 06:22:43;;;;;;;14.30;13.50;;;;;;;;;;5000517;28;20056;-48
2023/05/07 06:25:08;;;;;;;14.02;13.23;;;;;;;;;;4996759;28;20068;-48
2023/05/07 06:27:34;;;;;;;14.68;13.77;;;;;;;;;;4997277;28;20159;-48
2023/05/07 06:29:59;;;;;;;14.60;13.80;;;;;;;;;;4997392;28;20114;-49
2023/05/07 06:32:24;;;;;;;14.07;13.27;;;;;;;;;;4999250;28;20034;-52
2023/05/07 06:34:50;;;;;;;15.70;14.80;;;;;;;;;;4991133;28;20034;-49
2023/05/07 06:37:15;;;;;;;14.77;13.95;;;;;;;;;;4992791;28;20523;-51
2023/05/07 06:39:40;;;;;;;15.90;14.98;;;;;;;;;;4997818;28;20593;-52
2023/05/07 06:42:06;;;;;;;16.02;15.13;;;;;;;;;;4995259;28;20038;-49
2023/05/07 06:44:31;;;;;;;15.00;14.10;;;;;;;;;;4993859;28;20038;-50
2023/05/07 06:46:57;;;;;;;15.48;14.57;;;;;;;;;;5000513;28;20100;-50
2023/05/07 06:49:22;;;;;;;16.17;15.27;;;;;;;;;;4995306;28;20046;-48
2023/05/07 06:51:48;;;;;;;16.35;15.45;;;;;;;;;;4979043;28;20037;-48
2023/05/07 06:54:13;;;;;;;16.35;15.45;;;;;;;;;;4997273;28;20534;-49
2023/05/07 06:56:38;;;;;;;16.58;15.57;;;;;;;;;;4997566;28;20061;-49
2023/05/07 06:59:04;;;;;;;18.55;17.15;;;;;;;;;;4993596;28;20476;-49
2023/05/07 07:01:29;;;;;;;21.25;20.10;;;;;;;;;;4993734;28;20040;-50
2023/05/07 07:03:55;;;;;;;20.77;19.65;;;;;;;;;;4983293;28;20080;-51
2023/05/07 07:06:20;;;;;;;20.67;19.52;;;;;;;;;;4995700;28;20117;-51
2023/05/07 07:08:46;;;;;;;23.50;22.23;;;;;;;;;;5002190;28;20034;-48
2023/05/07 07:11:11;;;;;;;22.05;20.85;;;;;;;;;;4996001;28;20038;-50
2023/05/07 07:13:37;;;;;;;25.08;23.70;;;;;;;;;;4996271;28;20037;-51
2023/05/07 07:16:02;;;;;;;26.63;25.23;;;;;;;;;;4997382;28;20049;-51
2023/05/07 07:18:28;;;;;;;28.20;26.73;;;;;;;;;;4977076;28;20034;-50
2023/05/07 07:20:53;;;;;;;28.48;26.98;;;;;;;;;;4993531;28;20068;-47
2023/05/07 07:23:19;;;;;;;27.00;25.55;;;;;;;;;;4992994;28;20034;-50
2023/05/07 07:25:45;;;;;;;27.80;26.20;;;;;;;;;;4993660;28;20034;-48
2023/05/07 07:28:10;;;;;;;29.00;27.50;;;;;;;;;;4994073;28;20070;-49
2023/05/07 07:30:36;;;;;;;28.35;26.85;;;;;;;;;;4995004;28;20421;-48
2023/05/07 07:33:03;;;;;;;26.92;25.42;;;;;;;;;;4976646;28;20033;-49
2023/05/07 07:35:34;;;;;;;28.00;26.52;;;;;;;;;;4995501;28;20034;-50
2023/05/07 07:37:59;;;;;;;29.30;27.75;;;;;;;;;;4995650;28;20029;-50
2023/05/07 07:40:25;;;;;;;26.50;25.10;;;;;;;;;;5000861;28;20034;-51
2023/05/07 07:42:51;;;;;;;29.00;27.45;;;;;;;;;;4998132;28;20036;-48
2023/05/07 07:45:17;;;;;;;27.38;25.90;;;;;;;;;;4997738;28;20377;-62
2023/05/07 07:47:42;;;;;;;26.67;25.23;;;;;;;;;;4995093;28;20045;-61
2023/05/07 07:50:08;;;;;;;27.10;25.67;;;;;;;;;;4994712;28;20045;-61
2023/05/07 07:52:34;;;;;;;26.25;24.80;;;;;;;;;;4996242;28;20053;-61
2023/05/07 07:58:22;;;;;;;22.60;21.40;;;;;;;;;;4990724;28;20034;-62
2023/05/07 08:00:47;;;;;;;27.88;26.38;;;;;;;;;;4996549;28;20065;-61
2023/05/07 08:03:14;;;;;;;25.30;23.95;;;;;;;;;;4997472;28;20077;-62
2023/05/07 08:05:39;;;;;;;26.63;25.23;;;;;;;;;;4995402;28;20038;-62
2023/05/07 08:08:05;;;;;;;26.45;25.05;;;;;;;;;;4984019;28;20038;-61
2023/05/07 08:10:34;;;;;;;35.30;33.47;;;;;;;;;;4992486;28;20042;-61
2023/05/07 08:13:00;;;;;;;28.05;26.55;;;;;;;;;;4977075;28;20822;-62
2023/05/07 08:15:25;;;;;;;28.92;27.42;;;;;;;;;;4993899;28;20073;-62
2023/05/07 08:17:50;;;;;;;29.02;27.52;;;;;;;;;;4996232;28;20511;-63
2023/05/07 08:20:16;;;;;;;24.45;23.15;;;;;;;;;;4993415;28;20735;-62
2023/05/07 08:22:41;;;;;;;24.77;23.48;;;;;;;;;;4994189;28;20188;-61
2023/05/07 08:25:07;;;;;;;25.95;24.55;;;;;;;;;;4997667;28;20104;-61
2023/05/07 08:27:32;;;;;;;25.52;24.17;;;;;;;;;;5000694;28;20456;-61
2023/05/07 08:29:58;;;;;;;25.13;23.73;;;;;;;;;;4999595;28;20046;-61
2023/05/07 08:32:23;;;;;;;22.88;21.67;;;;;;;;;;4999771;28;20570;-61
2023/05/07 08:34:48;;;;;;;23.42;22.13;;;;;;;;;;4996666;28;20070;-61
2023/05/07 08:37:14;;;;;;;21.85;20.65;;;;;;;;;;4999575;28;20042;-62
2023/05/07 08:39:39;;;;;;;22.15;20.90;;;;;;;;;;5000813;28;20113;-62
2023/05/07 08:42:05;;;;;;;23.00;21.70;;;;;;;;;;5001888;28;20130;-49
2023/05/07 08:44:35;;;;;;;21.55;20.35;;;;;;;;;;4997894;28;20118;-48
2023/05/07 08:47:01;;;;;;;18.27;17.25;;;;;;;;;;4997727;28;20434;-50
2023/05/07 08:49:27;;;;;;;14.18;13.38;;;;;;;;;;4993661;28;20903;-49
2023/05/07 08:51:52;;;;;;;14.45;13.65;;;;;;;;;;4998193;28;20057;-47
2023/05/07 08:54:19;;;;;;;15.50;14.60;;;;;;;;;;5000009;28;20519;-52
2023/05/07 08:56:45;;;;;;;15.77;14.88;;;;;;;;;;4998004;28;20108;-48
2023/05/07 08:59:10;;;;;;;13.85;13.05;;;;;;;;;;4998932;28;20710;-52
2023/05/07 09:01:35;;;;;;;13.68;12.88;;;;;;;;;;4995740;28;20034;-49
2023/05/07 09:04:01;;;;;;;13.20;12.40;;;;;;;;;;4999482;28;20603;-49
2023/05/07 09:06:26;;;;;;;12.65;11.95;;;;;;;;;;4998273;28;20093;-50
2023/05/07 09:08:53;;;;;;;13.20;12.40;;;;;;;;;;4996571;28;20042;-52
2023/05/07 09:11:22;;;;;;;13.85;13.00;;;;;;;;;;4996935;28;20401;-52
2023/05/07 09:13:52;;;;;;;12.98;12.20;;;;;;;;;;4996478;28;20034;-48
2023/05/07 09:16:20;;;;;;;13.40;12.60;;;;;;;;;;4998243;28;20066;-48
2023/05/07 09:18:47;;;;;;;12.95;12.15;;;;;;;;;;4999026;28;20029;-49
2023/05/07 09:21:17;;;;;;;12.77;11.98;;;;;;;;;;4997206;28;20117;-49
2023/05/07 09:23:42;;;;;;;13.13;12.32;;;;;;;;;;4997229;28;20037;-47
2023/05/07 09:26:11;;;;;;;13.38;12.57;;;;;;;;;;4999987;28;20053;-48
2023/05/07 09:28:43;;;;;;;12.25;11.55;;;;;;;;;;4998607;28;20057;-49
2023/05/07 09:31:09;;;;;;;13.00;12.23;;;;;;;;;;5000903;28;20030;-50
2023/05/07 09:33:35;;;;;;;14.10;13.30;;;;;;;;;;4996398;28;20530;-51
2023/05/07 09:36:08;;;;;;;13.35;12.55;;;;;;;;;;4999647;28;20038;-47
2023/05/07 09:38:35;;;;;;;13.15;12.35;;;;;;;;;;4997759;28;20123;-49
2023/05/07 09:41:11;;;;;;;15.15;14.25;;;;;;;;;;4998614;28;20030;-50
2023/05/07 09:43:38;;;;;;;14.27;13.48;;;;;;;;;;4998374;28;20052;-50
2023/05/07 09:46:07;;;;;;;16.00;15.00;;;;;;;;;;4997088;28;20053;-50
2023/05/07 09:48:37;;;;;;;14.00;13.15;;;;;;;;;;4997474;28;20037;-50
2023/05/07 09:51:16;;;;;;;15.45;14.50;;;;;;;;;;4997461;28;20030;-50
2023/05/07 09:53:41;;;;;;;13.93;13.13;;;;;;;;;;4996457;28;20060;-49
2023/05/07 09:56:07;;;;;;;15.40;14.50;;;;;;;;;;4999732;28;20077;-50
2023/05/07 09:58:36;;;;;;;14.75;13.88;;;;;;;;;;4993298;28;20048;-53
2023/05/07 10:01:02;;;;;;;15.13;14.23;;;;;;;;;;4999641;28;20053;-48
2023/05/07 10:03:31;;;;;;;14.50;13.70;;;;;;;;;;4985964;28;20482;-46
2023/05/07 10:05:58;;;;;;;15.20;14.25;;;;;;;;;;4999199;28;20034;-46
2023/05/07 10:08:24;;;;;;;19.48;18.38;;;;;;;;;;4994942;28;20033;-47
2023/05/07 10:10:50;;;;;;;22.00;20.70;;;;;;;;;;4980802;28;20042;-46
2023/05/07 10:13:17;;;;;;;20.05;18.95;;;;;;;;;;4997464;28;20057;-46
2023/05/07 10:15:42;;;;;;;24.73;23.40;;;;;;;;;;4999520;28;20038;-48
2023/05/07 10:18:08;;;;;;;26.58;25.15;;;;;;;;;;4996954;28;20034;-46
2023/05/07 10:20:36;;;;;;;29.90;28.33;;;;;;;;;;4981768;28;20080;-61
2023/05/07 10:23:04;;;;;;;33.28;31.55;;;;;;;;;;4997579;28;20035;-60
2023/05/07 10:25:31;;;;;;;50.80;48.22;;;;;;;;;;4995657;28;20096;-60
2023/05/07 10:28:01;;;;;;;47.58;45.15;;;;;;;;;;4994904;28;20042;-60
2023/05/07 10:30:44;;;;;;;57.67;54.80;;;;;;;;;;4998924;28;20030;-61
2023/05/07 10:33:15;;;;;;;44.97;42.67;;;;;;;;;;4994895;28;20046;-61
2023/05/07 10:35:42;;;;;;;53.67;50.97;;;;;;;;;;4997575;28;20530;-61
2023/05/07 10:38:08;;;;;;;58.67;55.72;;;;;;;;;;4996991;28;20052;-61
2023/05/07 10:40:33;;;;;;;57.22;54.35;;;;;;;;;;4997060;28;20491;-61
2023/05/07 10:43:01;;;;;;;40.35;38.25;;;;;;;;;;4996160;28;20040;-61
2023/05/07 10:45:28;;;;;;;44.47;42.20;;;;;;;;;;4993204;28;20033;-60
2023/05/07 10:48:12;;;;;;;54.25;51.55;;;;;;;;;;4993750;28;20038;-60
2023/05/07 10:50:42;;;;;;;28.63;27.13;;;;;;;;;;4997691;28;20030;-61
2023/05/07 10:53:19;;;;;;;23.90;22.60;;;;;;;;;;4998266;28;20100;-60
2023/05/07 10:55:50;;;;;;;33.95;32.15;;;;;;;;;;4994726;28;20113;-62
2023/05/07 10:58:21;;;;;;;24.33;23.02;;;;;;;;;;4995090;28;20091;-61
2023/05/07 11:00:48;;;;;;;24.45;23.15;;;;;;;;;;4996985;28;20034;-60
2023/05/07 11:03:14;;;;;;;29.73;28.08;;;;;;;;;;4997568;28;20042;-61
2023/05/07 11:05:41;;;;;;;34.42;32.67;;;;;;;;;;4997040;28;20084;-61
2023/05/07 11:08:06;;;;;;;32.03;30.35;;;;;;;;;;4996070;28;20038;-61
2023/05/07 11:10:52;;;;;;;36.92;34.95;;;;;;;;;;4998439;28;20037;-62
2023/05/07 11:13:18;;;;;;;36.72;34.85;;;;;;;;;;4994612;28;20045;-62
2023/05/07 11:15:45;;;;;;;44.53;42.25;;;;;;;;;;4979547;28;20034;-60
2023/05/07 11:18:16;;;;;;;48.28;45.42;;;;;;;;;;4996983;28;20061;-62
2023/05/07 11:20:51;;;;;;;;;;;;;;;;;;5000508;28;20357;-61
2023/05/07 11:23:35;;;;;;;48.72;46.15;;;;;;;;;;4991253;28;19925;-61
2023/05/07 11:26:04;;;;;;;51.28;48.70;;;;;;;;;;4994695;28;20129;-60
2023/05/07 11:28:30;;;;;;;53.28;50.58;;;;;;;;;;4996368;28;20029;-61
2023/05/07 11:30:57;;;;;;;76.63;72.43;;;;;;;;;;4998344;28;20038;-62
2023/05/07 11:33:23;;;;;;;85.38;81.15;;;;;;;;;;4993338;28;20034;-61
2023/05/07 11:35:50;;;;;;;105.15;100.00;;;;;;;;;;4997009;28;20056;-62
2023/05/07 11:38:17;;;;;;;100.80;95.85;;;;;;;;;;4995059;28;20042;-62
2023/05/07 11:40:52;;;;;;;113.43;107.85;;;;;;;;;;4997116;28;20025;-62
2023/05/07 11:43:18;;;;;;;111.78;106.28;;;;;;;;;;4993973;28;20061;-61
2023/05/07 11:45:47;;;;;;;109.47;104.07;;;;;;;;;;4994864;28;20121;-63
2023/05/07 11:48:13;;;;;;;123.72;117.65;;;;;;;;;;4994469;28;20042;-61
2023/05/07 11:51:01;;;;;;;121.55;115.57;;;;;;;;;;4993502;28;20455;-61
2023/05/07 11:53:28;;;;;;;126.75;120.53;;;;;;;;;;4996164;28;20044;-61
2023/05/07 11:55:55;;;;;;;112.22;106.70;;;;;;;;;;4994632;28;20038;-61
2023/05/07 11:58:23;;;;;;;121.60;115.60;;;;;;;;;;4991440;28;20037;-62
2023/05/07 12:00:49;;;;;;;117.97;112.18;;;;;;;;;;5001013;28;20033;-61
2023/05/07 12:03:15;;;;;;;117.68;111.90;;;;;;;;;;5001908;28;20030;-61
2023/05/07 12:05:41;;;;;;;123.90;117.82;;;;;;;;;;4998372;28;20038;-62
2023/05/07 12:08:07;;;;;;;124.40;118.30;;;;;;;;;;4991890;28;20062;-61
2023/05/07 12:10:32;;;;;;;111.90;106.40;;;;;;;;;;4999322;28;20133;-64
2023/05/07 12:12:58;;;;;;;116.70;110.97;;;;;;;;;;5002184;28;20037;-61
2023/05/07 12:15:23;;;;;;;118.95;113.07;;;;;;;;;;5000388;28;20029;-60
2023/05/07 12:17:49;;;;;;;128.90;122.57;;;;;;;;;;5000766;28;20065;-61
2023/05/07 12:20:14;;;;;;;124.20;118.07;;;;;;;;;;5001033;28;20057;-61
2023/05/07 12:22:40;;;;;;;124.38;118.25;;;;;;;;;;5000723;28;20044;-61
2023/05/07 12:25:06;;;;;;;120.78;114.82;;;;;;;;;;4996939;28;20156;-61
2023/05/07 12:27:32;;;;;;;119.03;113.18;;;;;;;;;;4984885;28;20037;-61
2023/05/07 12:29:58;;;;;;;118.93;113.10;;;;;;;;;;4981654;28;20372;-61
2023/05/07 12:32:24;;;;;;;126.70;120.47;;;;;;;;;;4999086;28;20038;-61
2023/05/07 12:34:50;;;;;;;125.68;119.45;;;;;;;;;;4987394;28;20033;-61
2023/05/07 12:37:16;;;;;;;124.75;118.60;;;;;;;;;;5002453;28;20034;-61
2023/05/07 12:39:48;;;;;;;117.97;112.18;;;;;;;;;;4999918;28;20022;-63
2023/05/07 12:42:23;;;;;;;117.75;111.90;;;;;;;;;;4996360;28;20030;-62
2023/05/07 12:44:48;;;;;;;71.05;67.50;;;;;;;;;;4997499;28;20030;-63
2023/05/07 12:47:14;;;;;;;64.57;61.08;;;;;;;;;;4994995;28;20357;-63
2023/05/07 12:49:41;;;;;;;93.88;89.22;;;;;;;;;;4999302;28;20645;-63
2023/05/07 12:52:06;;;;;;;80.00;76.03;;;;;;;;;;4996168;28;20030;-63
2023/05/07 12:54:34;;;;;;;62.65;59.55;;;;;;;;;;4987071;28;21672;-62
2023/05/07 12:57:05;;;;;;;80.20;76.20;;;;;;;;;;4996688;28;20042;-62
2023/05/07 12:59:31;;;;;;;;;;;;;;;;;;4997671;28;20555;-62
2023/05/07 13:01:56;;;;;;;43.53;41.33;;;;;;;;;;4998402;28;19963;-62
2023/05/07 13:04:24;;;;;;;43.78;41.53;;;;;;;;;;4998076;28;20594;-62
2023/05/07 13:06:50;;;;;;;60.38;57.38;;;;;;;;;;4995795;28;20037;-62
2023/05/07 13:09:15;;;;;;;65.78;62.50;;;;;;;;;;4995618;28;20030;-62
2023/05/07 13:11:40;;;;;;;67.50;64.13;;;;;;;;;;4994958;28;20117;-62
2023/05/07 13:14:06;;;;;;;55.88;53.08;;;;;;;;;;4999689;28;20048;-49
2023/05/07 13:16:31;;;;;;;86.80;82.53;;;;;;;;;;5000898;28;20073;-50
2023/05/07 13:18:56;;;;;;;77.75;73.90;;;;;;;;;;4997019;28;20038;-49
2023/05/07 13:21:22;;;;;;;67.20;63.83;;;;;;;;;;5000054;28;20037;-49
2023/05/07 13:23:47;;;;;;;60.33;57.30;;;;;;;;;;4997831;28;20410;-51
2023/05/07 13:26:12;;;;;;;35.97;34.13;;;;;;;;;;4996367;28;20045;-52
2023/05/07 13:28:38;;;;;;;32.47;30.80;;;;;;;;;;4996032;28;20447;-54
2023/05/07 13:31:03;;;;;;;35.80;33.97;;;;;;;;;;4997315;28;20505;-49
2023/05/07 13:33:28;;;;;;;41.85;39.72;;;;;;;;;;4997858;28;20030;-53
2023/05/07 13:35:54;;;;;;;68.80;65.40;;;;;;;;;;4999204;28;20108;-51
2023/05/07 13:38:19;;;;;;;53.33;50.65;;;;;;;;;;4998321;28;20038;-52
2023/05/07 13:40:44;;;;;;;67.68;64.30;;;;;;;;;;4997857;28;20643;-53
2023/05/07 13:43:10;;;;;;;34.33;32.53;;;;;;;;;;4996438;28;20480;-53
2023/05/07 13:45:35;;;;;;;32.47;30.77;;;;;;;;;;4992223;28;20034;-53
2023/05/07 13:48:01;;;;;;;65.95;62.67;;;;;;;;;;4996079;28;20330;-52
2023/05/07 13:50:29;;;;;;;29.77;28.17;;;;;;;;;;4997918;28;20465;-50
2023/05/07 13:52:55;;;;;;;52.40;49.75;;;;;;;;;;4998534;28;20576;-50
2023/05/07 13:55:22;;;;;;;35.97;34.08;;;;;;;;;;4995452;28;20038;-53
2023/05/07 13:57:55;;;;;;;57.85;54.95;;;;;;;;;;4997418;28;20128;-50
2023/05/07 14:00:20;;;;;;;49.47;46.97;;;;;;;;;;4997229;28;20117;-51
2023/05/07 14:02:45;;;;;;;75.05;71.30;;;;;;;;;;4999514;28;20401;-63
2023/05/07 14:05:11;;;;;;;77.85;73.97;;;;;;;;;;4995152;28;20523;-62
2023/05/07 14:07:37;;;;;;;48.33;45.90;;;;;;;;;;4996158;28;20749;-61
2023/05/07 14:10:02;;;;;;;52.65;49.95;;;;;;;;;;4998882;28;20141;-63
2023/05/07 14:12:27;;;;;;;57.55;54.65;;;;;;;;;;4997526;28;20045;-61
2023/05/07 14:14:53;;;;;;;39.05;37.05;;;;;;;;;;4995639;28;20504;-62
2023/05/07 14:17:18;;;;;;;47.80;45.40;;;;;;;;;;4985913;28;20034;-61